Time;durP1;ratioP1;P1;durP2;ratioP2;P2;SDS_P1;SDS_P2;PMS_P1;PMS_P2;Temp;Humidity;BMP_temperature;BMP_pressure;BME280_temperature;BME280_humidity;BME280_pressure;Samples;Min_cycle;Max_cycle;Signal;HPM_P1;HPM_P2
2023/04/21 00:02:04;;;;;;;21.65;19.35;;;8.80;99.90;;;;;;5044332;28;20067;-81
2023/04/21 00:04:31;;;;;;;24.33;18.98;;;8.80;99.90;;;;;;5044147;28;20147;-81
2023/04/21 00:07:00;;;;;;;21.35;18.48;;;8.80;99.90;;;;;;5044760;28;20045;-81
2023/04/21 00:09:26;;;;;;;20.85;17.85;;;8.90;99.90;;;;;;5047157;28;20053;-81
2023/04/21 00:11:51;;;;;;;21.92;16.67;;;8.90;99.90;;;;;;5078214;28;20041;-80
2023/04/21 00:14:17;;;;;;;25.48;19.23;;;8.90;99.90;;;;;;5042163;28;21919;-81
2023/04/21 00:16:43;;;;;;;19.23;16.77;;;9.00;99.90;;;;;;5075200;28;20041;-82
2023/04/21 00:19:08;;;;;;;20.30;17.27;;;9.00;99.90;;;;;;5047922;28;20041;-82
2023/04/21 00:21:34;;;;;;;19.60;16.38;;;9.00;99.90;;;;;;5041696;28;20616;-81
2023/04/21 00:24:00;;;;;;;18.45;15.00;;;9.00;99.90;;;;;;5040328;28;20033;-81
2023/04/21 00:26:25;;;;;;;21.52;15.13;;;9.00;99.90;;;;;;5045149;28;20038;-82
2023/04/21 00:28:51;;;;;;;16.52;14.70;;;9.10;99.90;;;;;;5042741;28;20044;-82
2023/04/21 00:31:16;;;;;;;19.30;14.52;;;9.10;99.90;;;;;;5043419;28;20037;-81
2023/04/21 00:33:42;;;;;;;20.23;13.65;;;9.10;99.90;;;;;;5046080;28;20045;-81
2023/04/21 00:36:08;;;;;;;18.48;15.13;;;9.20;99.90;;;;;;5072769;28;20072;-82
2023/04/21 00:38:33;;;;;;;20.00;13.40;;;9.20;99.90;;;;;;5043737;28;20041;-82
2023/04/21 00:40:59;;;;;;;20.13;13.27;;;9.20;99.90;;;;;;5044944;28;20503;-82
2023/04/21 00:43:24;;;;;;;20.27;14.77;;;9.10;99.90;;;;;;5040741;28;20033;-81
2023/04/21 00:45:50;;;;;;;16.48;14.27;;;9.10;99.90;;;;;;5075308;28;20037;-82
2023/04/21 00:48:16;;;;;;;16.60;13.15;;;9.10;99.90;;;;;;5042016;28;20044;-81
2023/04/21 00:50:43;;;;;;;16.83;13.15;;;9.00;99.90;;;;;;5040623;28;20419;-81
2023/04/21 00:53:11;;;;;;;17.40;13.13;;;8.90;99.90;;;;;;5042926;28;20598;-81
2023/04/21 00:55:37;;;;;;;15.77;13.38;;;8.90;99.90;;;;;;5043204;28;20064;-81
2023/04/21 00:58:03;;;;;;;18.30;11.70;;;8.90;99.90;;;;;;5040547;28;20133;-82
2023/04/21 01:00:29;;;;;;;18.73;13.23;;;8.90;99.90;;;;;;5073568;28;20051;-81
2023/04/21 01:02:54;;;;;;;18.15;13.93;;;8.80;99.90;;;;;;5042620;28;20033;-82
2023/04/21 01:05:20;;;;;;;18.52;12.65;;;8.80;99.90;;;;;;5040599;28;20076;-81
2023/04/21 01:07:46;;;;;;;15.52;12.48;;;8.80;99.90;;;;;;5043335;28;20156;-82
2023/04/21 01:10:12;;;;;;;17.60;12.20;;;9.00;99.90;;;;;;5045527;28;20033;-82
2023/04/21 01:12:44;;;;;;;14.18;12.35;;;8.80;99.90;;;;;;5044666;28;20045;-82
2023/04/21 01:15:15;;;;;;;15.88;11.85;;;8.80;99.90;;;;;;5044617;28;20049;-82
2023/04/21 01:17:41;;;;;;;18.83;11.90;;;8.80;99.90;;;;;;5028262;28;20049;-82
2023/04/21 01:20:09;;;;;;;18.30;11.43;;;8.80;99.90;;;;;;5080329;28;20502;-82
2023/04/21 01:22:40;;;;;;;16.33;11.13;;;8.90;99.90;;;;;;5045262;28;20095;-81
2023/04/21 01:25:07;;;;;;;14.50;11.20;;;8.90;99.90;;;;;;5046064;28;20069;-81
2023/04/21 01:27:33;;;;;;;18.30;12.05;;;8.90;99.90;;;;;;5045549;28;20033;-80
2023/04/21 01:29:58;;;;;;;14.73;11.18;;;8.80;99.90;;;;;;5045700;28;20047;-81
2023/04/21 01:32:27;;;;;;;14.98;10.80;;;8.80;99.90;;;;;;5045979;28;20483;-81
2023/04/21 01:34:54;;;;;;;18.20;11.80;;;8.80;99.90;;;;;;5045851;28;20037;-81
2023/04/21 01:37:24;;;;;;;14.65;12.15;;;8.90;99.90;;;;;;5043333;28;20049;-81
2023/04/21 01:39:53;;;;;;;14.25;10.02;;;8.80;99.90;;;;;;5047761;28;20056;-81
2023/04/21 01:42:20;;;;;;;14.05;11.23;;;8.80;99.90;;;;;;5040342;28;20522;-82
2023/04/21 01:44:48;;;;;;;13.13;10.90;;;8.80;99.90;;;;;;5043821;28;20508;-81
2023/04/21 01:47:15;;;;;;;13.00;10.88;;;8.80;99.90;;;;;;5042676;28;20041;-81
2023/04/21 01:49:41;;;;;;;13.63;10.77;;;8.80;99.90;;;;;;5041697;28;20091;-80
2023/04/21 01:52:06;;;;;;;13.80;11.05;;;8.80;99.90;;;;;;5039613;28;20451;-81
2023/04/21 01:54:32;;;;;;;15.75;10.63;;;8.80;99.90;;;;;;5037290;28;20037;-81
2023/04/21 01:56:58;;;;;;;14.88;10.68;;;8.70;99.90;;;;;;5038303;28;20033;-79
2023/04/21 01:59:24;;;;;;;13.88;11.18;;;8.70;99.90;;;;;;5044748;28;20064;-81
2023/04/21 02:01:50;;;;;;;17.45;10.43;;;8.70;99.90;;;;;;5045153;28;20307;-81
2023/04/21 02:04:16;;;;;;;15.63;10.82;;;8.70;99.90;;;;;;5043802;28;20044;-81
2023/04/21 02:06:41;;;;;;;13.23;11.13;;;8.70;99.90;;;;;;5045557;28;20541;-81
2023/04/21 02:09:07;;;;;;;15.98;10.55;;;8.70;99.90;;;;;;5034731;28;20043;-81
2023/04/21 02:11:32;;;;;;;15.80;10.15;;;8.60;99.90;;;;;;5046976;28;20040;-82
2023/04/21 02:13:58;;;;;;;15.50;9.95;;;8.70;99.90;;;;;;5077754;28;20044;-81
2023/04/21 02:16:26;;;;;;;12.65;9.65;;;8.70;99.90;;;;;;5048798;28;20044;-82
2023/04/21 02:18:56;;;;;;;18.27;10.38;;;8.80;99.90;;;;;;5048119;28;20040;-82
2023/04/21 02:21:22;;;;;;;15.90;10.40;;;8.80;99.90;;;;;;5047308;28;20049;-82
2023/04/21 02:23:47;;;;;;;15.38;10.80;;;8.90;99.90;;;;;;5075230;28;21067;-81
2023/04/21 02:26:13;;;;;;;14.45;10.25;;;8.80;99.90;;;;;;5043161;28;20041;-80
2023/04/21 02:28:39;;;;;;;14.70;10.00;;;8.80;99.90;;;;;;5048302;28;20491;-82
2023/04/21 02:31:04;;;;;;;15.32;11.20;;;8.70;99.90;;;;;;5047940;28;20128;-81
2023/04/21 02:33:30;;;;;;;13.80;9.85;;;8.60;99.90;;;;;;5042497;28;20458;-81
2023/04/21 02:35:55;;;;;;;14.32;10.07;;;8.60;99.90;;;;;;5076288;28;20041;-80
2023/04/21 02:38:21;;;;;;;18.58;10.40;;;8.50;99.90;;;;;;5043646;28;20431;-81
2023/04/21 02:40:46;;;;;;;14.48;10.45;;;8.60;99.90;;;;;;5046729;28;20045;-82
2023/04/21 02:43:16;;;;;;;18.45;9.82;;;8.60;99.90;;;;;;5049560;28;20052;-82
2023/04/21 02:45:41;;;;;;;12.73;9.82;;;8.60;99.90;;;;;;5059900;28;20521;-82
2023/04/21 02:48:07;;;;;;;13.10;8.55;;;8.50;99.90;;;;;;5044459;28;20131;-81
2023/04/21 02:50:32;;;;;;;15.10;10.30;;;8.60;99.90;;;;;;5042457;28;20033;-81
2023/04/21 02:52:58;;;;;;;14.93;9.68;;;8.60;99.90;;;;;;5044174;28;20068;-81
2023/04/21 02:55:24;;;;;;;13.13;9.40;;;8.50;99.90;;;;;;5044976;28;20171;-82
2023/04/21 02:57:49;;;;;;;17.23;9.48;;;8.60;99.90;;;;;;5046901;28;20061;-81
2023/04/21 03:00:15;;;;;;;16.42;10.40;;;8.60;99.90;;;;;;5047160;28;20044;-81
2023/04/21 03:02:41;;;;;;;15.48;10.07;;;8.50;99.90;;;;;;5058825;28;21537;-81
2023/04/21 03:05:07;;;;;;;12.38;9.88;;;8.60;99.90;;;;;;5077216;28;20036;-81
2023/04/21 03:07:33;;;;;;;15.43;10.00;;;8.60;99.90;;;;;;5047655;28;20064;-81
2023/04/21 03:09:59;;;;;;;14.30;9.98;;;8.60;99.90;;;;;;5049515;28;20073;-82
2023/04/21 03:12:24;;;;;;;12.75;8.88;;;8.60;99.90;;;;;;5050623;28;20045;-81
2023/04/21 03:14:50;;;;;;;15.27;10.10;;;8.70;99.90;;;;;;5050056;28;20404;-82
2023/04/21 03:17:15;;;;;;;17.17;9.35;;;8.70;99.90;;;;;;5050853;28;20083;-82
2023/04/21 03:19:41;;;;;;;15.27;9.35;;;8.80;99.90;;;;;;5047843;28;20044;-81
2023/04/21 03:22:07;;;;;;;16.02;9.35;;;8.80;99.90;;;;;;5049249;28;20455;-82
2023/04/21 03:24:32;;;;;;;13.68;8.90;;;8.80;99.90;;;;;;5048000;28;20045;-82
2023/04/21 03:26:58;;;;;;;11.27;9.55;;;8.80;99.90;;;;;;5045915;28;20080;-82
2023/04/21 03:29:24;;;;;;;11.25;8.02;;;8.80;99.90;;;;;;5046106;28;20083;-81
2023/04/21 03:31:49;;;;;;;18.58;9.02;;;8.90;99.90;;;;;;5049090;28;20649;-82
2023/04/21 03:34:15;;;;;;;11.50;8.52;;;8.80;99.90;;;;;;5049918;28;20064;-81
2023/04/21 03:36:40;;;;;;;18.45;9.45;;;8.80;99.90;;;;;;5048563;28;20114;-81
2023/04/21 03:39:06;;;;;;;11.25;8.50;;;8.80;99.90;;;;;;5046695;28;20037;-82
2023/04/21 03:41:35;;;;;;;14.95;9.63;;;8.80;99.90;;;;;;5048802;28;20099;-82
2023/04/21 03:44:00;;;;;;;13.13;8.50;;;8.80;99.90;;;;;;5043691;28;20057;-81
2023/04/21 03:46:26;;;;;;;12.73;8.35;;;8.90;99.90;;;;;;5044854;28;20089;-81
2023/04/21 03:48:51;;;;;;;15.18;9.88;;;8.90;99.90;;;;;;5044437;28;20045;-81
2023/04/21 03:51:17;;;;;;;15.25;9.80;;;8.90;99.90;;;;;;5045097;28;20076;-81
2023/04/21 03:53:43;;;;;;;12.60;8.82;;;8.90;99.90;;;;;;5044441;28;20048;-82
2023/04/21 03:56:08;;;;;;;15.25;9.93;;;8.90;99.90;;;;;;5042539;28;20052;-81
2023/04/21 03:58:34;;;;;;;14.90;9.60;;;8.90;99.90;;;;;;5044267;28;20048;-82
2023/04/21 04:01:00;;;;;;;15.75;9.60;;;8.90;99.90;;;;;;5042755;28;20086;-82
2023/04/21 04:03:25;;;;;;;17.13;10.13;;;8.90;99.90;;;;;;5040644;28;20036;-82
2023/04/21 04:05:51;;;;;;;12.55;8.82;;;8.90;99.90;;;;;;5042757;28;20093;-82
2023/04/21 04:08:17;;;;;;;14.57;9.43;;;8.90;99.90;;;;;;5027436;28;20123;-82
2023/04/21 04:10:42;;;;;;;14.07;8.40;;;8.80;99.90;;;;;;5043213;28;20655;-82
2023/04/21 04:13:08;;;;;;;13.70;9.13;;;8.90;99.90;;;;;;5041053;28;20049;-81
2023/04/21 04:15:33;;;;;;;13.02;9.80;;;8.90;99.90;;;;;;5045020;28;20039;-82
2023/04/21 04:17:59;;;;;;;15.60;8.95;;;8.90;99.90;;;;;;5042673;28;20468;-82
2023/04/21 04:20:24;;;;;;;13.25;9.35;;;8.90;99.90;;;;;;5040181;28;20059;-81
2023/04/21 04:22:50;;;;;;;13.05;9.55;;;8.80;99.90;;;;;;5041557;28;20045;-81
2023/04/21 04:25:16;;;;;;;13.27;10.43;;;8.80;99.90;;;;;;5025193;28;20483;-80
2023/04/21 04:27:45;;;;;;;12.02;9.73;;;8.90;99.90;;;;;;5040055;28;20069;-81
2023/04/21 04:30:12;;;;;;;15.05;9.50;;;8.80;99.90;;;;;;5039030;28;20045;-82
2023/04/21 04:32:41;;;;;;;15.75;9.63;;;8.80;99.90;;;;;;5039081;28;20178;-82
2023/04/21 04:35:07;;;;;;;13.15;10.07;;;8.70;99.90;;;;;;5024932;28;20045;-81
2023/04/21 04:37:35;;;;;;;15.88;9.68;;;8.70;99.90;;;;;;5045845;28;20094;-82
2023/04/21 04:40:04;;;;;;;15.80;10.60;;;8.80;99.90;;;;;;5046951;28;20103;-81
2023/04/21 04:42:31;;;;;;;15.90;11.23;;;8.70;99.90;;;;;;5046361;28;20044;-82
2023/04/21 04:44:58;;;;;;;17.00;11.30;;;8.60;99.90;;;;;;5038423;28;20040;-82
2023/04/21 04:47:24;;;;;;;14.73;10.13;;;8.70;99.90;;;;;;5053175;28;20444;-82
2023/04/21 04:49:49;;;;;;;16.75;10.70;;;8.60;99.90;;;;;;5038473;28;20160;-82
2023/04/21 04:52:15;;;;;;;14.70;10.85;;;8.50;99.90;;;;;;5026481;28;21946;-84
2023/04/21 04:54:41;;;;;;;14.30;10.82;;;8.60;99.90;;;;;;5043364;28;20032;-81
2023/04/21 04:57:06;;;;;;;15.60;9.98;;;8.50;99.90;;;;;;5035825;28;20107;-80
2023/04/21 04:59:32;;;;;;;14.30;9.63;;;8.60;99.90;;;;;;5036839;28;20505;-78
2023/04/21 05:01:58;;;;;;;17.52;10.45;;;8.80;99.90;;;;;;5038801;28;20047;-81
2023/04/21 05:04:23;;;;;;;16.05;10.13;;;9.00;99.90;;;;;;5040328;28;20444;-82
2023/04/21 05:06:49;;;;;;;15.20;10.15;;;9.10;99.90;;;;;;5039871;28;20037;-82
2023/04/21 05:09:15;;;;;;;14.75;9.20;;;9.30;99.90;;;;;;5040942;28;20449;-82
2023/04/21 05:11:41;;;;;;;17.48;9.40;;;9.40;99.90;;;;;;5042129;28;20045;-82
2023/04/21 05:14:06;;;;;;;10.40;8.43;;;9.80;99.90;;;;;;5035635;28;20491;-79
2023/04/21 05:16:33;;;;;;;17.60;9.63;;;10.10;99.90;;;;;;5045069;28;20048;-80
2023/04/21 05:19:02;;;;;;;11.80;8.73;;;10.50;99.90;;;;;;5047008;28;20045;-79
2023/04/21 05:21:28;;;;;;;15.07;8.68;;;10.80;99.90;;;;;;5070567;28;20534;-80
2023/04/21 05:23:58;;;;;;;14.02;8.60;;;11.00;99.90;;;;;;5035717;28;20049;-79
2023/04/21 05:26:26;;;;;;;10.68;8.82;;;11.30;99.90;;;;;;5039325;28;20041;-80
2023/04/21 05:28:55;;;;;;;11.63;8.43;;;11.50;99.90;;;;;;5036619;28;20044;-83
2023/04/21 05:31:24;;;;;;;13.45;9.07;;;11.80;99.90;;;;;;5069492;28;20041;-81
2023/04/21 05:33:49;;;;;;;12.45;8.57;;;11.40;99.90;;;;;;5038171;28;20044;-81
2023/04/21 05:36:15;;;;;;;14.63;8.60;;;11.00;99.90;;;;;;5037172;28;20040;-81
2023/04/21 05:38:41;;;;;;;11.43;8.50;;;10.60;99.90;;;;;;5069829;28;20049;-78
2023/04/21 05:41:07;;;;;;;16.23;9.25;;;10.30;99.90;;;;;;5036829;28;20497;-78
2023/04/21 05:43:33;;;;;;;14.27;8.73;;;10.70;99.90;;;;;;5035273;28;20045;-78
2023/04/21 05:45:59;;;;;;;11.43;8.05;;;11.50;99.90;;;;;;5035654;28;20135;-79
2023/04/21 05:48:25;;;;;;;11.07;8.23;;;11.80;99.90;;;;;;5038162;28;20045;-79
2023/04/21 05:50:51;;;;;;;12.23;7.25;;;12.20;99.90;;;;;;5040050;28;20491;-82
2023/04/21 05:53:16;;;;;;;12.45;7.57;;;12.60;99.90;;;;;;5053708;28;20048;-82
2023/04/21 05:55:42;;;;;;;11.50;8.07;;;12.90;99.90;;;;;;5038350;28;20044;-80
2023/04/21 05:58:08;;;;;;;14.00;7.07;;;13.20;99.90;;;;;;5038985;28;20040;-83
2023/04/21 06:00:33;;;;;;;13.02;7.10;;;13.40;99.90;;;;;;5034191;28;20036;-80
2023/04/21 06:02:59;;;;;;;11.10;6.68;;;13.50;99.90;;;;;;5038152;28;20560;-80
2023/04/21 06:05:24;;;;;;;14.55;6.97;;;13.60;99.90;;;;;;5047083;28;20085;-81
2023/04/21 06:07:50;;;;;;;16.40;6.85;;;13.90;99.90;;;;;;5041614;28;20039;-79
2023/04/21 06:10:16;;;;;;;11.80;6.72;;;13.90;99.90;;;;;;5045001;28;20037;-81
2023/04/21 06:12:42;;;;;;;11.18;6.50;;;13.90;99.90;;;;;;5044392;28;20086;-79
2023/04/21 06:15:08;;;;;;;10.98;6.72;;;14.00;99.90;;;;;;5041325;28;20505;-81
2023/04/21 06:17:33;;;;;;;9.57;6.20;;;13.90;99.90;;;;;;5040573;28;20935;-81
2023/04/21 06:19:59;;;;;;;14.88;7.47;;;14.00;99.90;;;;;;5038025;28;20044;-81
2023/04/21 06:22:26;;;;;;;9.98;6.15;;;13.90;99.90;;;;;;5075327;28;20123;-81
2023/04/21 06:24:51;;;;;;;13.48;6.85;;;14.50;99.90;;;;;;5077326;28;20049;-81
2023/04/21 06:27:17;;;;;;;11.40;6.40;;;14.60;99.90;;;;;;5044118;28;20049;-81
2023/04/21 06:29:43;;;;;;;11.00;5.53;;;14.60;99.90;;;;;;5044559;28;20080;-80
2023/04/21 06:32:11;;;;;;;15.15;7.72;;;14.70;99.90;;;;;;5044063;28;20124;-80
2023/04/21 06:34:38;;;;;;;11.43;5.80;;;14.90;99.90;;;;;;5037944;28;20037;-81
2023/04/21 06:37:03;;;;;;;14.00;6.45;;;14.50;99.90;;;;;;5040521;28;20037;-81
2023/04/21 06:39:29;;;;;;;9.57;5.90;;;14.50;99.90;;;;;;5041219;28;20051;-80
2023/04/21 06:41:56;;;;;;;8.48;5.68;;;14.50;99.90;;;;;;5040696;28;20049;-82
2023/04/21 06:44:22;;;;;;;13.13;6.47;;;14.10;99.90;;;;;;5024963;28;20067;-81
2023/04/21 06:46:48;;;;;;;10.90;6.63;;;13.80;99.90;;;;;;5044407;28;20045;-82
2023/04/21 06:49:14;;;;;;;12.57;6.10;;;13.60;99.90;;;;;;5042686;28;20041;-82
2023/04/21 06:51:39;;;;;;;15.60;8.18;;;13.40;99.90;;;;;;5038981;28;20037;-80
2023/04/21 06:54:05;;;;;;;7.60;6.30;;;13.20;99.90;;;;;;5039528;28;20035;-81
2023/04/21 06:56:31;;;;;;;14.98;7.07;;;13.10;99.90;;;;;;5044600;28;20074;-81
2023/04/21 06:58:56;;;;;;;12.63;6.82;;;13.30;99.90;;;;;;5059815;28;20132;-81
2023/04/21 07:01:25;;;;;;;15.30;7.07;;;13.20;99.90;;;;;;5040443;28;20048;-82
2023/04/21 07:03:51;;;;;;;9.68;6.38;;;12.90;99.90;;;;;;5041682;28;20049;-80
2023/04/21 07:06:16;;;;;;;9.10;6.15;;;12.80;99.90;;;;;;5042673;28;20124;-81
2023/04/21 07:08:42;;;;;;;9.00;5.90;;;12.50;99.90;;;;;;5043599;28;20044;-82
2023/04/21 07:11:07;;;;;;;14.63;6.20;;;12.20;99.90;;;;;;5043278;28;20040;-78
2023/04/21 07:13:33;;;;;;;8.57;6.80;;;12.10;99.90;;;;;;5040050;28;20066;-78
2023/04/21 07:15:59;;;;;;;12.32;6.63;;;11.90;99.90;;;;;;5037301;28;20041;-78
2023/04/21 07:18:25;;;;;;;17.38;7.50;;;11.90;99.90;;;;;;5041635;28;20037;-79
2023/04/21 07:20:51;;;;;;;8.65;6.63;;;11.80;99.90;;;;;;5040577;28;20483;-79
2023/04/21 07:23:17;;;;;;;12.63;6.85;;;11.90;99.90;;;;;;5042356;28;20056;-79
2023/04/21 07:25:43;;;;;;;10.18;7.03;;;11.90;99.90;;;;;;5042438;28;20128;-78
2023/04/21 07:28:09;;;;;;;10.95;6.80;;;11.90;99.90;;;;;;5037328;28;20032;-78
2023/04/21 07:30:35;;;;;;;10.80;7.13;;;12.00;99.90;;;;;;5041445;28;20048;-80
2023/04/21 07:33:02;;;;;;;13.48;6.35;;;12.00;99.90;;;;;;5045991;28;20041;-80
2023/04/21 07:35:27;;;;;;;24.45;7.53;;;12.10;99.90;;;;;;5043717;28;20127;-79
2023/04/21 07:37:53;;;;;;;10.95;7.03;;;12.20;99.90;;;;;;5039872;28;20100;-80
2023/04/21 07:40:19;;;;;;;13.23;6.93;;;12.20;99.90;;;;;;5039155;28;20040;-78
2023/04/21 07:42:44;;;;;;;12.25;6.65;;;12.20;99.90;;;;;;5071470;28;20044;-80
2023/04/21 07:45:10;;;;;;;14.70;7.35;;;12.30;99.90;;;;;;5041432;28;20048;-80
2023/04/21 07:47:36;;;;;;;13.82;6.85;;;12.50;99.90;;;;;;5040028;28;20476;-79
2023/04/21 07:50:02;;;;;;;13.50;6.85;;;12.70;99.90;;;;;;5040960;28;20044;-79
2023/04/21 07:52:27;;;;;;;11.82;6.60;;;12.70;99.90;;;;;;5042092;28;20116;-79
2023/04/21 07:54:53;;;;;;;14.75;6.93;;;12.80;99.90;;;;;;5055764;28;20406;-79
2023/04/21 07:57:19;;;;;;;10.75;6.75;;;12.90;99.90;;;;;;5037710;28;20068;-79
2023/04/21 07:59:44;;;;;;;13.88;7.25;;;13.00;99.90;;;;;;5071038;28;20054;-80
2023/04/21 08:02:10;;;;;;;15.43;7.13;;;13.30;99.90;;;;;;5045519;28;20086;-79
2023/04/21 08:04:35;;;;;;;12.77;6.38;;;13.50;99.90;;;;;;5042761;28;20501;-80
2023/04/21 08:07:04;;;;;;;10.35;6.88;;;13.60;99.90;;;;;;5045308;28;20053;-80
2023/04/21 08:09:30;;;;;;;13.43;6.85;;;13.70;99.90;;;;;;5028212;28;20033;-80
2023/04/21 08:11:56;;;;;;;14.45;6.38;;;13.70;99.90;;;;;;5042443;28;20037;-79
2023/04/21 08:14:22;;;;;;;11.20;6.75;;;13.70;99.90;;;;;;5041671;28;20120;-79
2023/04/21 08:16:48;;;;;;;10.10;6.93;;;13.80;99.90;;;;;;5042107;28;21002;-79
2023/04/21 08:19:13;;;;;;;12.85;6.10;;;13.70;99.90;;;;;;5038735;28;20056;-79
2023/04/21 08:21:39;;;;;;;11.50;6.15;;;13.90;99.90;;;;;;5037662;28;20045;-80
2023/04/21 08:24:05;;;;;;;9.23;6.35;;;13.90;99.90;;;;;;5041291;28;20131;-78
2023/04/21 08:26:32;;;;;;;14.43;7.10;;;13.80;99.90;;;;;;5057455;28;20188;-81
2023/04/21 08:28:59;;;;;;;13.20;6.95;;;13.60;99.90;;;;;;5042221;28;20044;-81
2023/04/21 08:31:25;;;;;;;12.02;7.50;;;13.70;99.90;;;;;;5040004;28;20037;-80
2023/04/21 08:33:51;;;;;;;12.98;7.32;;;13.70;99.90;;;;;;5040754;28;20059;-81
2023/04/21 08:36:16;;;;;;;13.68;7.28;;;13.80;99.90;;;;;;5037056;28;20156;-81
2023/04/21 08:38:43;;;;;;;10.45;6.40;;;13.90;99.90;;;;;;5036568;28;20499;-80
2023/04/21 08:41:09;;;;;;;20.25;7.32;;;14.00;99.90;;;;;;5031427;28;20053;-80
2023/04/21 08:43:35;;;;;;;10.75;6.38;;;14.10;99.90;;;;;;5020734;28;20045;-80
2023/04/21 08:46:06;;;;;;;12.25;7.13;;;14.30;99.90;;;;;;5030911;28;20044;-81
2023/04/21 08:48:35;;;;;;;10.30;6.47;;;14.40;99.90;;;;;;5030294;28;20036;-80
2023/04/21 08:51:01;;;;;;;12.32;6.45;;;14.50;99.90;;;;;;5030148;28;20045;-79
2023/04/21 08:53:27;;;;;;;18.83;7.70;;;14.50;99.90;;;;;;5032446;28;20052;-80
2023/04/21 08:55:54;;;;;;;12.25;7.20;;;14.50;99.90;;;;;;5030360;28;20059;-80
2023/04/21 08:58:23;;;;;;;14.15;7.45;;;14.60;99.90;;;;;;5034535;28;20099;-81
2023/04/21 09:00:50;;;;;;;11.38;7.03;;;14.60;99.90;;;;;;5018856;28;20075;-80
2023/04/21 09:03:24;;;;;;;11.88;7.47;;;14.50;99.90;;;;;;5026547;28;21391;-80
2023/04/21 09:06:01;;;;;;;11.63;7.40;;;14.50;99.90;;;;;;5023694;28;22448;-80
2023/04/21 09:08:29;;;;;;;13.63;7.07;;;14.50;99.90;;;;;;5036406;28;20087;-80
2023/04/21 09:10:56;;;;;;;12.43;7.05;;;14.60;99.90;;;;;;5037887;28;20044;-80
2023/04/21 09:13:31;;;;;;;9.13;6.15;;;14.70;99.90;;;;;;5043434;28;20123;-80
2023/04/21 09:15:57;;;;;;;;;;;14.90;99.90;;;;;;5042943;28;20040;-80
2023/04/21 09:18:25;;;;;;;11.10;6.95;;;14.70;99.90;;;;;;5035696;28;19932;-81
2023/04/21 09:21:03;;;;;;;9.55;6.80;;;14.70;99.90;;;;;;5041369;28;20391;-80
2023/04/21 09:23:29;;;;;;;13.82;7.38;;;14.80;99.90;;;;;;5041738;28;20037;-81
2023/04/21 09:25:55;;;;;;;11.32;7.82;;;14.70;99.90;;;;;;5022915;28;20036;-80
2023/04/21 09:28:20;;;;;;;10.63;6.75;;;14.80;99.90;;;;;;5042305;28;20089;-80
2023/04/21 09:30:53;;;;;;;13.07;7.60;;;14.70;99.90;;;;;;5042784;28;20033;-81
2023/04/21 09:33:19;;;;;;;16.80;7.47;;;14.80;99.90;;;;;;5042674;28;20160;-81
2023/04/21 09:35:46;;;;;;;10.93;6.25;;;14.80;99.90;;;;;;5022148;28;20119;-80
2023/04/21 09:38:12;;;;;;;13.43;7.22;;;14.90;99.90;;;;;;5034263;28;21977;-82
2023/04/21 09:40:39;;;;;;;9.10;6.53;;;15.10;99.90;;;;;;5027125;28;20087;-82
2023/04/21 09:43:05;;;;;;;12.00;7.30;;;15.10;99.90;;;;;;5027941;28;20057;-82
2023/04/21 09:45:32;;;;;;;10.50;6.93;;;15.10;99.90;;;;;;5031602;28;20151;-81
2023/04/21 09:48:00;;;;;;;12.82;6.30;;;15.20;99.90;;;;;;5025427;28;20494;-83
2023/04/21 09:50:27;;;;;;;10.65;7.03;;;15.20;99.90;;;;;;5027063;28;20715;-82
2023/04/21 09:52:54;;;;;;;14.57;7.35;;;15.20;99.90;;;;;;5025736;28;20056;-81
2023/04/21 09:55:28;;;;;;;13.88;7.25;;;15.50;99.90;;;;;;5042473;28;20056;-81
2023/04/21 09:57:58;;;;;;;9.00;7.07;;;15.50;99.90;;;;;;5031100;28;20060;-80
2023/04/21 10:00:30;;;;;;;16.73;6.75;;;15.50;99.90;;;;;;5023181;28;20100;-82
2023/04/21 10:02:59;;;;;;;10.68;6.38;;;15.60;99.90;;;;;;5027000;28;20056;-80
2023/04/21 10:05:25;;;;;;;14.23;6.82;;;15.50;99.90;;;;;;5033224;28;20049;-80
2023/04/21 10:07:51;;;;;;;19.45;7.50;;;15.60;99.90;;;;;;5034501;28;20114;-80
2023/04/21 10:10:35;;;;;;;13.95;6.47;;;15.70;99.90;;;;;;5039012;28;20044;-80
2023/04/21 10:13:02;;;;;;;12.50;6.97;;;15.90;99.90;;;;;;5038737;28;20060;-80
2023/04/21 10:15:37;;;;;;;12.38;7.25;;;15.90;99.90;;;;;;5040340;28;20059;-80
2023/04/21 10:18:21;;;;;;;11.38;7.57;;;16.00;99.90;;;;;;5020339;28;20056;-80
2023/04/21 10:20:52;;;;;;;10.93;6.68;;;16.30;99.90;;;;;;5037860;28;20120;-81
2023/04/21 10:23:36;;;;;;;16.33;7.15;;;16.70;99.90;;;;;;5041700;28;20061;-80
2023/04/21 10:26:09;;;;;;;10.45;7.07;;;17.00;99.90;;;;;;5042477;28;20097;-81
2023/04/21 10:28:42;;;;;;;11.63;6.85;;;17.30;99.90;;;;;;5041641;28;20061;-81
2023/04/21 10:31:25;;;;;;;9.50;6.65;;;17.00;99.90;;;;;;5040489;28;20041;-81
2023/04/21 10:34:07;;;;;;;13.27;7.13;;;17.00;99.90;;;;;;5045595;28;20183;-82
2023/04/21 10:36:42;;;;;;;11.10;7.40;;;17.10;99.90;;;;;;5044625;28;20756;-82
2023/04/21 10:39:11;;;;;;;11.00;8.35;;;17.10;99.90;;;;;;5044008;28;20170;-81
2023/04/21 10:41:37;;;;;;;15.00;8.18;;;17.20;99.90;;;;;;5074237;28;20083;-81
2023/04/21 10:44:09;;;;;;;12.75;7.72;;;17.30;99.90;;;;;;5044224;28;20528;-80
2023/04/21 10:46:35;;;;;;;12.88;8.25;;;17.40;99.90;;;;;;5041282;28;20048;-81
2023/04/21 10:49:09;;;;;;;11.82;7.68;;;17.50;99.90;;;;;;5073264;28;20063;-79
2023/04/21 10:52:15;;;;;;;12.95;7.50;;;17.50;99.90;;;;;;5040442;28;20044;-80
2023/04/21 10:54:46;;;;;;;9.98;7.50;;;17.60;99.90;;;;;;5048862;28;20064;-82
2023/04/21 10:57:14;;;;;;;17.50;8.45;;;17.60;99.90;;;;;;5039689;28;20517;-80
2023/04/21 10:59:40;;;;;;;9.70;7.38;;;17.80;99.90;;;;;;5044032;28;20045;-81
2023/04/21 11:02:07;;;;;;;14.70;7.50;;;17.90;99.90;;;;;;5045411;28;20055;-83
2023/04/21 11:04:33;;;;;;;10.48;7.38;;;17.80;99.90;;;;;;5045073;28;20033;-83
2023/04/21 11:07:22;;;;;;;13.40;7.80;;;17.50;99.90;;;;;;5058120;28;20163;-81
2023/04/21 11:10:05;;;;;;;8.35;7.07;;;17.30;99.90;;;;;;5045812;28;20044;-83
2023/04/21 11:12:37;;;;;;;15.00;7.30;;;17.30;99.90;;;;;;5025938;28;20049;-84
2023/04/21 11:15:10;;;;;;;12.00;7.15;;;17.40;99.90;;;;;;5040865;28;20045;-82
2023/04/21 11:17:42;;;;;;;11.57;7.00;;;17.50;99.90;;;;;;5049273;28;20041;-82
2023/04/21 11:20:08;;;;;;;10.45;7.07;;;17.50;99.90;;;;;;5047722;28;20041;-82
2023/04/21 11:22:35;;;;;;;11.48;6.30;;;17.50;99.90;;;;;;5044752;28;20060;-82
2023/04/21 11:25:02;;;;;;;14.43;6.55;;;17.40;99.90;;;;;;5043803;28;20465;-82
2023/04/21 11:27:29;;;;;;;12.95;7.65;;;17.20;99.90;;;;;;5043122;28;20053;-83
2023/04/21 11:29:56;;;;;;;11.80;6.63;;;17.30;99.90;;;;;;5040868;28;20198;-81
2023/04/21 11:32:22;;;;;;;10.35;6.18;;;17.40;99.90;;;;;;5071465;28;20518;-82
2023/04/21 11:34:48;;;;;;;13.23;6.15;;;17.50;99.90;;;;;;5041289;28;20041;-82
2023/04/21 11:37:16;;;;;;;14.65;6.22;;;17.80;99.90;;;;;;5041408;28;20064;-81
2023/04/21 11:39:42;;;;;;;10.90;6.20;;;18.30;99.90;;;;;;5043763;28;20044;-81
2023/04/21 11:42:09;;;;;;;11.95;5.35;;;18.40;99.90;;;;;;5040957;28;20056;-79
2023/04/21 11:44:36;;;;;;;11.85;5.50;;;18.60;99.90;;;;;;5037804;28;20084;-80
2023/04/21 11:47:12;;;;;;;13.25;6.00;;;18.60;99.90;;;;;;5040009;28;20151;-82
2023/04/21 11:50:03;;;;;;;12.13;6.13;;;18.60;99.90;;;;;;5022143;28;20071;-81
2023/04/21 11:52:31;;;;;;;15.18;5.57;;;18.70;99.90;;;;;;5043389;28;20515;-80
2023/04/21 11:55:17;;;;;;;12.88;5.18;;;18.60;99.90;;;;;;5044132;28;20030;-81
2023/04/21 11:57:43;;;;;;;9.45;5.68;;;18.90;99.90;;;;;;5046737;28;20037;-81
2023/04/21 12:00:11;;;;;;;13.13;5.28;;;18.90;99.90;;;;;;5046785;28;20124;-81
2023/04/21 12:02:37;;;;;;;12.52;5.55;;;18.90;99.90;;;;;;5043942;28;20037;-80
2023/04/21 12:05:05;;;;;;;10.98;5.30;;;19.10;99.90;;;;;;5043866;28;20060;-82
2023/04/21 12:07:37;;;;;;;9.90;5.22;;;19.10;99.90;;;;;;5043354;28;20055;-81
2023/04/21 12:10:14;;;;;;;8.65;4.50;;;19.40;99.90;;;;;;5029669;28;20037;-81
2023/04/21 12:12:41;;;;;;;9.95;4.63;;;19.50;99.90;;;;;;5046951;28;20100;-81
2023/04/21 12:15:08;;;;;;;10.05;5.20;;;19.30;99.90;;;;;;5041117;28;20041;-81
2023/04/21 12:17:45;;;;;;;8.27;4.63;;;19.10;99.90;;;;;;5041803;28;20041;-81
2023/04/21 12:20:14;;;;;;;7.00;4.18;;;18.90;99.90;;;;;;5040205;28;20042;-82
2023/04/21 12:22:39;;;;;;;7.13;4.38;;;18.50;99.90;;;;;;5055788;28;20085;-80
2023/04/21 12:25:05;;;;;;;13.57;5.32;;;18.50;99.90;;;;;;5026585;28;20116;-81
2023/04/21 12:27:31;;;;;;;11.73;4.32;;;18.40;99.90;;;;;;5027429;28;20040;-80
2023/04/21 12:29:56;;;;;;;7.75;3.80;;;18.30;99.90;;;;;;5043471;28;20041;-80
2023/04/21 12:32:23;;;;;;;5.65;3.50;;;18.20;99.90;;;;;;5043505;28;20041;-81
2023/04/21 12:34:49;;;;;;;7.55;3.45;;;18.20;99.90;;;;;;5036663;28;20049;-81
2023/04/21 12:37:14;;;;;;;10.13;3.80;;;18.20;99.90;;;;;;5036894;28;20056;-82
2023/04/21 12:39:40;;;;;;;8.82;3.65;;;18.10;99.90;;;;;;5038181;28;20316;-80
2023/04/21 12:42:06;;;;;;;9.43;3.55;;;18.30;99.90;;;;;;5034130;28;20119;-80